createdAt,value
2018-11-11T00:00:24.908Z,2.27
2018-11-11T00:01:28.600Z,2.22
2018-11-11T00:02:32.012Z,4.42
2018-11-11T00:03:35.442Z,5.53
2018-11-11T00:04:39.179Z,6.72
2018-11-11T00:05:42.569Z,6.70
2018-11-11T00:06:45.952Z,5.87
2018-11-11T00:07:49.363Z,6.60
2018-11-11T00:08:52.949Z,8.70
2018-11-11T00:09:56.340Z,6.72
2018-11-11T00:10:59.741Z,6.15
2018-11-11T00:12:03.126Z,5.42
2018-11-11T00:13:06.528Z,5.65
2018-11-11T00:14:09.913Z,6.75
2018-11-11T00:15:14.463Z,7.92
2018-11-11T00:16:17.844Z,7.92
2018-11-11T00:17:21.216Z,9.83
2018-11-11T00:18:24.709Z,6.15
2018-11-11T00:19:28.098Z,3.90
2018-11-11T00:20:31.513Z,7.12
2018-11-11T00:21:34.931Z,8.48
2018-11-11T00:22:38.664Z,7.47
2018-11-11T00:23:42.089Z,8.05
2018-11-11T00:24:45.452Z,6.65
2018-11-11T00:25:48.815Z,8.03
2018-11-11T00:26:58.929Z,6.12
2018-11-11T00:28:02.313Z,5.37
2018-11-11T00:29:06.300Z,6.28
2018-11-11T00:30:14.037Z,6.05
2018-11-11T00:31:17.416Z,5.20
2018-11-11T00:32:20.800Z,5.65
2018-11-11T00:33:24.208Z,4.83
2018-11-11T00:34:27.624Z,7.50
2018-11-11T00:35:30.979Z,4.80
2018-11-11T00:36:34.381Z,5.78
2018-11-11T00:37:38.048Z,4.92
2018-11-11T00:38:41.416Z,6.35
2018-11-11T00:39:44.919Z,4.67
2018-11-11T00:40:48.192Z,3.98
2018-11-11T00:41:51.590Z,3.92
2018-11-11T00:42:54.981Z,6.65
2018-11-11T00:43:58.364Z,4.28
2018-11-11T00:45:01.805Z,5.12
2018-11-11T00:46:05.441Z,4.58
2018-11-11T00:47:08.806Z,5.92
2018-11-11T00:48:12.176Z,3.98
2018-11-11T00:49:15.553Z,4.08
2018-11-11T00:50:18.978Z,9.38
2018-11-11T00:51:22.442Z,7.20
2018-11-11T00:52:25.811Z,6.25
2018-11-11T00:53:29.177Z,9.45
2018-11-11T00:54:32.564Z,5.05
2018-11-11T00:55:38.050Z,5.47
2018-11-11T00:56:41.419Z,4.40
2018-11-11T00:57:45.274Z,2.70
2018-11-11T00:58:48.631Z,3.33
2018-11-11T00:59:52.006Z,4.60
2018-11-11T01:00:55.418Z,4.00
2018-11-11T01:01:58.889Z,3.35
2018-11-11T01:03:02.281Z,3.45
2018-11-11T01:04:06.116Z,3.72
2018-11-11T01:05:10.388Z,3.02
2018-11-11T01:06:13.824Z,5.05
2018-11-11T01:07:17.272Z,3.20
2018-11-11T01:08:20.703Z,4.90
2018-11-11T01:09:24.059Z,3.75
2018-11-11T01:10:27.453Z,2.37
2018-11-11T01:11:30.971Z,3.40
2018-11-11T01:12:34.348Z,3.45
2018-11-11T01:13:37.864Z,4.03
2018-11-11T01:14:41.250Z,4.17
2018-11-11T01:15:44.624Z,2.60
2018-11-11T01:16:48.003Z,3.02
2018-11-11T01:17:51.489Z,5.40
2018-11-11T01:18:54.844Z,3.72
2018-11-11T01:19:58.215Z,3.40
2018-11-11T01:21:01.613Z,2.02
2018-11-11T01:22:05.008Z,2.45
2018-11-11T01:23:08.419Z,3.37
2018-11-11T01:24:11.960Z,2.42
2018-11-11T01:25:16.366Z,2.77
2018-11-11T01:26:19.762Z,2.42
2018-11-11T01:27:23.117Z,5.22
2018-11-11T01:28:26.488Z,3.20
2018-11-11T01:29:29.908Z,3.02
2018-11-11T01:30:33.276Z,1.80
2018-11-11T01:31:36.672Z,2.08
2018-11-11T01:32:40.165Z,1.77
2018-11-11T01:33:43.533Z,5.83
2018-11-11T01:34:46.921Z,2.50
2018-11-11T01:35:50.320Z,2.55
2018-11-11T01:36:53.700Z,1.65
2018-11-11T01:37:57.145Z,3.35
2018-11-11T01:39:00.520Z,2.85
2018-11-11T01:40:03.904Z,3.00
2018-11-11T01:41:07.276Z,1.72
2018-11-11T01:42:10.675Z,2.00
2018-11-11T01:43:14.112Z,4.72
2018-11-11T01:44:17.505Z,1.95
2018-11-11T01:45:20.863Z,3.72
2018-11-11T01:46:24.228Z,3.08
2018-11-11T01:47:27.606Z,1.70
2018-11-11T01:48:30.992Z,2.62
2018-11-11T01:49:34.395Z,2.92
2018-11-11T01:50:37.776Z,1.80
2018-11-11T01:51:41.131Z,2.92
2018-11-11T01:52:44.564Z,1.10
2018-11-11T01:53:47.951Z,2.35
2018-11-11T01:54:51.321Z,2.00
2018-11-11T01:55:54.742Z,3.40
2018-11-11T01:56:58.121Z,2.15
2018-11-11T01:58:01.538Z,1.95
2018-11-11T01:59:04.915Z,1.98
2018-11-11T02:00:11.775Z,2.95
2018-11-11T02:01:15.221Z,2.12
2018-11-11T02:02:18.609Z,1.87
2018-11-11T02:03:21.988Z,1.77
2018-11-11T02:04:25.355Z,2.58
2018-11-11T02:05:28.728Z,2.33
2018-11-11T02:06:32.116Z,2.35
2018-11-11T02:07:35.501Z,3.40
2018-11-11T02:08:38.906Z,1.98
2018-11-11T02:09:42.314Z,2.52
2018-11-11T02:10:45.652Z,2.15
2018-11-11T02:11:49.049Z,3.17
2018-11-11T02:12:52.453Z,2.35
2018-11-11T02:13:55.869Z,4.75
2018-11-11T02:14:59.224Z,2.67
2018-11-11T02:16:02.594Z,2.17
2018-11-11T02:17:06.021Z,4.00
2018-11-11T02:18:09.420Z,2.92
2018-11-11T02:19:12.802Z,3.20
2018-11-11T02:20:17.741Z,1.98
2018-11-11T02:21:21.120Z,2.52
2018-11-11T02:22:24.526Z,3.02
2018-11-11T02:23:27.912Z,3.02
2018-11-11T02:24:31.294Z,1.45
2018-11-11T02:25:34.744Z,1.37
2018-11-11T02:26:38.163Z,2.17
2018-11-11T02:27:41.537Z,4.03
2018-11-11T02:28:44.921Z,2.85
2018-11-11T02:29:48.373Z,1.52
2018-11-11T02:30:51.984Z,1.77
2018-11-11T02:31:55.380Z,1.98
2018-11-11T02:32:58.824Z,4.17
2018-11-11T02:34:02.213Z,3.85
2018-11-11T02:35:05.752Z,2.20
2018-11-11T02:36:09.212Z,2.45
2018-11-11T02:37:12.605Z,1.50
2018-11-11T02:38:16.178Z,3.02
2018-11-11T02:39:19.574Z,3.58
2018-11-11T02:40:22.984Z,3.90
2018-11-11T02:41:26.449Z,2.67
2018-11-11T02:42:29.865Z,2.27
2018-11-11T02:43:33.538Z,3.25
2018-11-11T02:44:36.928Z,2.12
2018-11-11T02:45:40.323Z,2.30
2018-11-11T02:46:43.729Z,2.30
2018-11-11T02:47:47.132Z,1.85
2018-11-11T02:48:50.552Z,4.33
2018-11-11T02:49:53.935Z,5.08
2018-11-11T02:50:57.356Z,2.65
2018-11-11T02:52:00.750Z,3.02
2018-11-11T02:53:04.137Z,1.90
2018-11-11T02:54:07.575Z,5.70
2018-11-11T02:55:11.653Z,1.30
2018-11-11T02:56:15.049Z,1.62
2018-11-11T02:57:18.528Z,2.92
2018-11-11T02:58:22.458Z,2.83
2018-11-11T02:59:25.851Z,1.40
2018-11-11T03:00:29.342Z,4.62
2018-11-11T03:01:32.717Z,2.20
2018-11-11T03:02:36.114Z,2.08
2018-11-11T03:03:39.488Z,1.40
2018-11-11T03:04:42.881Z,3.98
2018-11-11T03:05:46.283Z,1.90
2018-11-11T03:06:49.678Z,5.37
2018-11-11T03:07:53.035Z,4.25
2018-11-11T03:08:56.420Z,4.25
2018-11-11T03:09:59.826Z,3.22
2018-11-11T03:11:03.220Z,4.15
2018-11-11T03:12:06.604Z,2.72
2018-11-11T03:13:09.987Z,3.27
2018-11-11T03:14:13.358Z,1.95
2018-11-11T03:15:17.125Z,5.37
2018-11-11T03:16:20.560Z,4.10
2018-11-11T03:17:23.956Z,5.95
2018-11-11T03:19:37.083Z,3.67
2018-11-11T03:20:40.545Z,3.92
2018-11-11T03:21:43.937Z,2.30
2018-11-11T03:22:47.320Z,1.77
2018-11-11T03:23:50.709Z,2.10
2018-11-11T03:24:54.064Z,4.30
2018-11-11T03:25:57.465Z,5.08
2018-11-11T03:27:00.844Z,3.83
2018-11-11T03:28:04.242Z,3.72
2018-11-11T03:29:07.821Z,2.33
2018-11-11T03:30:12.794Z,4.42
2018-11-11T03:31:16.189Z,1.95
2018-11-11T03:32:19.876Z,3.75
2018-11-11T03:33:23.268Z,4.62
2018-11-11T03:34:26.733Z,2.83
2018-11-11T03:35:30.108Z,2.58
2018-11-11T03:36:33.527Z,5.58
2018-11-11T03:37:36.937Z,3.15
2018-11-11T03:38:40.331Z,2.02
2018-11-11T03:39:43.691Z,1.45
2018-11-11T03:40:47.117Z,2.67
2018-11-11T03:41:50.510Z,4.42
2018-11-11T03:42:53.903Z,3.75
2018-11-11T03:43:57.301Z,2.08
2018-11-11T03:45:00.671Z,4.62
2018-11-11T03:46:04.061Z,3.17
2018-11-11T03:47:07.468Z,2.77
2018-11-11T03:48:10.937Z,2.62
2018-11-11T03:49:14.316Z,6.03
2018-11-11T03:50:17.727Z,2.58
2018-11-11T03:51:21.113Z,6.35
2018-11-11T03:52:24.510Z,2.87
2018-11-11T03:53:27.953Z,1.50
2018-11-11T03:54:31.369Z,4.58
2018-11-11T03:55:34.739Z,3.08
2018-11-11T03:56:38.488Z,2.08
2018-11-11T03:57:41.969Z,3.02
2018-11-11T03:58:45.369Z,5.25
2018-11-11T03:59:48.682Z,2.95
2018-11-11T04:00:52.053Z,5.50
2018-11-11T04:01:55.436Z,1.60
2018-11-11T04:02:58.808Z,1.87
2018-11-11T04:04:02.208Z,2.12
2018-11-11T04:05:06.312Z,3.17
2018-11-11T04:06:09.708Z,3.42
2018-11-11T04:07:13.095Z,2.65
2018-11-11T04:08:16.453Z,1.95
2018-11-11T04:09:19.833Z,4.45
2018-11-11T04:10:23.222Z,2.37
2018-11-11T04:11:26.597Z,6.62
2018-11-11T04:12:29.988Z,3.50
2018-11-11T04:13:33.349Z,4.75
2018-11-11T04:14:36.723Z,2.72
2018-11-11T04:15:40.128Z,2.77
2018-11-11T04:16:43.534Z,2.62
2018-11-11T04:17:47.295Z,2.02
2018-11-11T04:18:50.704Z,5.03
2018-11-11T04:19:54.055Z,3.25
2018-11-11T04:20:57.548Z,4.45
2018-11-11T04:22:05.173Z,3.42
2018-11-11T04:23:08.532Z,2.65
2018-11-11T04:24:11.957Z,1.98
2018-11-11T04:25:16.110Z,1.35
2018-11-11T04:26:19.557Z,2.80
2018-11-11T04:27:22.969Z,3.55
2018-11-11T04:28:26.348Z,1.52
2018-11-11T04:29:29.704Z,1.70
2018-11-11T04:30:33.107Z,4.10
2018-11-11T04:31:36.487Z,5.12
2018-11-11T04:32:40.144Z,2.52
2018-11-11T04:33:43.666Z,1.52
2018-11-11T04:34:47.033Z,1.40
2018-11-11T04:35:50.413Z,3.85
2018-11-11T04:36:53.795Z,2.95
2018-11-11T04:37:57.185Z,5.03
2018-11-11T04:39:00.551Z,2.20
2018-11-11T04:40:04.368Z,3.65
2018-11-11T04:41:07.763Z,2.17
2018-11-11T04:42:11.152Z,2.62
2018-11-11T04:43:14.596Z,6.05
2018-11-11T04:44:17.988Z,2.80
2018-11-11T04:45:21.388Z,5.30
2018-11-11T04:46:25.045Z,3.02
2018-11-11T04:47:28.376Z,2.33
2018-11-11T04:48:31.780Z,4.70
2018-11-11T04:49:35.216Z,4.33
2018-11-11T04:50:38.712Z,2.95
2018-11-11T04:51:42.096Z,3.22
2018-11-11T04:52:46.178Z,2.55
2018-11-11T04:53:49.580Z,2.85
2018-11-11T04:54:52.952Z,2.27
2018-11-11T04:55:56.329Z,1.87
2018-11-11T04:56:59.709Z,3.27
2018-11-11T04:58:03.086Z,3.12
2018-11-11T04:59:06.825Z,3.22
2018-11-11T05:00:11.728Z,6.40
2018-11-11T05:01:15.177Z,2.37
2018-11-11T05:02:18.535Z,5.55
2018-11-11T05:03:21.899Z,2.95
2018-11-11T05:04:25.312Z,1.40
2018-11-11T05:05:28.768Z,4.67
2018-11-11T05:06:32.170Z,4.72
2018-11-11T05:07:35.560Z,5.78
2018-11-11T05:08:38.969Z,4.95
2018-11-11T05:09:42.458Z,3.40
2018-11-11T05:10:45.879Z,3.80
2018-11-11T05:11:49.344Z,4.50
2018-11-11T05:12:52.728Z,3.40
2018-11-11T05:13:56.096Z,3.42
2018-11-11T05:14:59.477Z,4.03
2018-11-11T05:16:02.921Z,2.12
2018-11-11T05:17:06.310Z,3.15
2018-11-11T05:18:09.695Z,6.12
2018-11-11T05:19:13.060Z,4.65
2018-11-11T05:20:16.458Z,7.15
2018-11-11T05:21:19.941Z,4.40
2018-11-11T05:22:23.352Z,3.15
2018-11-11T05:23:26.710Z,1.57
2018-11-11T05:24:30.072Z,1.52
2018-11-11T05:25:33.465Z,3.60
2018-11-11T05:26:36.850Z,3.98
2018-11-11T05:27:40.297Z,1.60
2018-11-11T05:28:43.673Z,3.15
2018-11-11T05:29:47.060Z,5.03
2018-11-11T05:30:50.539Z,3.15
2018-11-11T05:31:53.863Z,2.05
2018-11-11T05:32:57.245Z,3.05
2018-11-11T05:34:00.648Z,3.42
2018-11-11T05:35:05.310Z,4.28
2018-11-11T05:36:08.680Z,5.45
2018-11-11T05:37:12.080Z,1.32
2018-11-11T05:38:15.465Z,2.60
2018-11-11T05:39:18.839Z,2.40
2018-11-11T05:40:22.232Z,4.40
2018-11-11T05:41:25.612Z,2.25
2018-11-11T05:42:29.001Z,4.33
2018-11-11T05:43:32.380Z,3.80
2018-11-11T05:44:35.781Z,2.62
2018-11-11T05:45:39.179Z,3.85
2018-11-11T05:46:42.573Z,2.02
2018-11-11T05:47:45.943Z,3.40
2018-11-11T05:48:49.356Z,3.75
2018-11-11T05:49:52.736Z,2.17
2018-11-11T05:50:56.096Z,2.85
2018-11-11T05:51:59.460Z,1.32
2018-11-11T05:53:02.851Z,2.65
2018-11-11T05:54:06.216Z,2.05
2018-11-11T05:55:09.961Z,3.72
2018-11-11T05:56:13.336Z,2.77
2018-11-11T05:57:16.700Z,2.10
2018-11-11T05:58:20.083Z,5.28
2018-11-11T05:59:23.504Z,3.17
2018-11-11T06:00:26.924Z,1.55
2018-11-11T06:01:30.352Z,2.65
2018-11-11T06:02:33.724Z,1.72
2018-11-11T06:03:37.094Z,1.65
2018-11-11T06:04:40.488Z,2.22
2018-11-11T06:05:43.883Z,1.80
2018-11-11T06:06:47.253Z,2.45
2018-11-11T06:07:50.728Z,2.67
2018-11-11T06:08:54.100Z,2.17
2018-11-11T06:09:57.488Z,2.45
2018-11-11T06:11:00.856Z,2.62
2018-11-11T06:12:04.231Z,2.83
2018-11-11T06:13:07.596Z,2.10
2018-11-11T06:14:11.020Z,3.35
2018-11-11T06:15:14.905Z,2.20
2018-11-11T06:16:18.275Z,1.30
2018-11-11T06:17:21.673Z,2.15
2018-11-11T06:18:25.051Z,2.67
2018-11-11T06:19:28.443Z,1.55
2018-11-11T06:20:32.496Z,2.22
2018-11-11T06:21:36.016Z,2.65
2018-11-11T06:22:39.384Z,3.92
2018-11-11T06:23:42.799Z,4.40
2018-11-11T06:24:46.295Z,4.08
2018-11-11T06:25:49.689Z,2.08
2018-11-11T06:26:53.206Z,1.45
2018-11-11T06:27:56.704Z,3.47
2018-11-11T06:29:00.072Z,4.25
2018-11-11T06:30:03.612Z,2.87
2018-11-11T06:31:06.997Z,1.30
2018-11-11T06:32:10.394Z,2.27
2018-11-11T06:33:13.768Z,3.20
2018-11-11T06:34:17.334Z,2.10
2018-11-11T06:35:20.683Z,4.17
2018-11-11T06:36:24.072Z,2.52
2018-11-11T06:37:27.440Z,4.62
2018-11-11T06:38:30.804Z,2.42
2018-11-11T06:39:34.180Z,2.10
2018-11-11T06:40:37.701Z,4.72
2018-11-11T06:41:41.099Z,3.05
2018-11-11T06:42:44.488Z,4.08
2018-11-11T06:43:47.876Z,4.00
2018-11-11T06:44:51.261Z,3.17
2018-11-11T06:45:54.849Z,2.42
2018-11-11T06:46:58.254Z,1.62
2018-11-11T06:48:01.632Z,2.70
2018-11-11T06:49:05.190Z,4.60
2018-11-11T06:50:09.528Z,2.90
2018-11-11T06:51:12.907Z,2.20
2018-11-11T06:52:16.294Z,3.72
2018-11-11T06:53:19.788Z,3.55
2018-11-11T06:54:23.204Z,3.47
2018-11-11T06:55:26.632Z,4.00
2018-11-11T06:56:30.001Z,1.65
2018-11-11T06:57:33.429Z,4.03
2018-11-11T06:58:36.803Z,4.10
2018-11-11T06:59:40.256Z,3.58
2018-11-11T07:00:43.646Z,2.62
2018-11-11T07:01:47.024Z,2.12
2018-11-11T07:03:01.695Z,2.62
2018-11-11T07:04:05.287Z,4.35
2018-11-11T07:05:09.523Z,2.72
2018-11-11T07:06:12.886Z,3.87
2018-11-11T07:07:16.284Z,3.05
2018-11-11T07:08:19.643Z,1.95
2018-11-11T07:09:23.090Z,1.85
2018-11-11T07:10:26.487Z,1.75
2018-11-11T07:11:29.892Z,1.25
2018-11-11T07:12:33.341Z,1.45
2018-11-11T07:13:36.692Z,5.03
2018-11-11T07:14:40.083Z,3.42
2018-11-11T07:15:43.501Z,1.55
2018-11-11T07:16:46.911Z,2.50
2018-11-11T07:17:50.281Z,1.70
2018-11-11T07:18:53.645Z,2.08
2018-11-11T07:19:57.135Z,2.20
2018-11-11T07:21:00.505Z,4.03
2018-11-11T07:22:03.882Z,1.10
2018-11-11T07:23:07.465Z,3.08
2018-11-11T07:24:10.884Z,3.15
2018-11-11T07:25:14.275Z,2.55
2018-11-11T07:26:17.716Z,1.70
2018-11-11T07:27:21.105Z,3.62
2018-11-11T07:28:24.799Z,3.45
2018-11-11T07:29:28.492Z,2.65
2018-11-11T07:30:32.010Z,3.67
2018-11-11T07:31:35.367Z,3.92
2018-11-11T07:32:38.734Z,3.50
2018-11-11T07:33:42.178Z,1.42
2018-11-11T07:34:46.164Z,2.92
2018-11-11T07:35:55.967Z,1.90
2018-11-11T07:36:59.474Z,1.77
2018-11-11T07:38:02.837Z,4.90
2018-11-11T07:39:09.908Z,7.35
2018-11-11T07:40:14.747Z,1.72
2018-11-11T07:41:18.133Z,1.92
2018-11-11T07:42:21.576Z,2.17
2018-11-11T07:43:24.916Z,5.67
2018-11-11T07:44:28.301Z,1.50
2018-11-11T07:45:31.709Z,1.65
2018-11-11T07:46:35.133Z,2.15
2018-11-11T07:47:38.530Z,1.15
2018-11-11T07:48:41.936Z,1.75
2018-11-11T07:49:45.327Z,5.28
2018-11-11T07:50:48.740Z,2.40
2018-11-11T07:51:52.144Z,2.62
2018-11-11T07:52:55.495Z,3.83
2018-11-11T07:53:58.889Z,2.15
2018-11-11T07:55:02.370Z,3.83
2018-11-11T07:56:05.717Z,1.22
2018-11-11T07:57:09.321Z,1.72
2018-11-11T07:58:12.714Z,1.95
2018-11-11T07:59:16.116Z,2.50
2018-11-11T08:00:19.506Z,3.27
2018-11-11T08:01:22.925Z,4.78
2018-11-11T08:02:26.344Z,4.10
2018-11-11T08:03:29.740Z,2.10
2018-11-11T08:04:33.144Z,1.92
2018-11-11T08:05:36.595Z,3.50
2018-11-11T08:06:39.972Z,1.87
2018-11-11T08:07:43.356Z,2.12
2018-11-11T08:08:46.726Z,3.55
2018-11-11T08:09:50.112Z,1.67
2018-11-11T08:11:04.876Z,2.08
2018-11-11T08:12:08.453Z,2.72
2018-11-11T08:13:11.956Z,2.08
2018-11-11T08:14:15.365Z,2.55
2018-11-11T08:15:18.809Z,2.37
2018-11-11T08:16:22.216Z,3.12
2018-11-11T08:17:25.608Z,1.50
2018-11-11T08:18:29.009Z,3.92
2018-11-11T08:19:32.426Z,2.02
2018-11-11T08:20:35.965Z,1.32
2018-11-11T08:21:39.386Z,1.55
2018-11-11T08:22:42.760Z,1.20
2018-11-11T08:23:46.151Z,1.77
2018-11-11T08:24:49.820Z,1.90
2018-11-11T08:25:53.419Z,1.12
2018-11-11T08:26:57.336Z,3.00
2018-11-11T08:28:00.768Z,2.15
2018-11-11T08:29:04.144Z,1.85
2018-11-11T08:30:08.620Z,1.55
2018-11-11T08:31:12.204Z,1.00
2018-11-11T08:32:15.725Z,1.30
2018-11-11T08:33:19.082Z,2.52
2018-11-11T08:34:22.457Z,2.10
2018-11-11T08:35:25.979Z,0.90
2018-11-11T08:36:29.385Z,0.80
2018-11-11T08:37:32.758Z,0.82
2018-11-11T08:38:36.241Z,2.98
2018-11-11T08:39:39.638Z,1.82
2018-11-11T08:40:43.094Z,1.62
2018-11-11T08:41:46.840Z,1.07
2018-11-11T08:42:50.208Z,1.82
2018-11-11T08:43:53.656Z,2.83
2018-11-11T08:44:57.143Z,1.22
2018-11-11T08:46:00.690Z,0.70
2018-11-11T08:47:04.172Z,1.42
2018-11-11T08:48:07.628Z,3.22
2018-11-11T08:49:12.223Z,2.08
2018-11-11T08:50:15.698Z,3.25
2018-11-11T08:51:19.499Z,0.80
2018-11-11T08:52:22.935Z,0.80
2018-11-11T08:53:26.368Z,0.98
2018-11-11T08:54:29.747Z,1.02
2018-11-11T08:55:33.140Z,2.08
2018-11-11T08:56:36.537Z,2.08
2018-11-11T08:57:39.949Z,0.93
2018-11-11T08:58:43.379Z,3.05
2018-11-11T08:59:46.757Z,1.70
2018-11-11T09:00:50.168Z,1.02
2018-11-11T09:01:53.544Z,2.17
2018-11-11T09:02:56.904Z,2.05
2018-11-11T09:04:00.297Z,3.77
2018-11-11T09:05:03.716Z,1.75
2018-11-11T09:06:07.094Z,1.95
2018-11-11T09:07:10.459Z,0.75
2018-11-11T09:08:13.833Z,1.75
2018-11-11T09:09:17.221Z,1.35
2018-11-11T09:10:20.737Z,5.00
2018-11-11T09:11:24.169Z,1.40
2018-11-11T09:12:27.538Z,1.30
2018-11-11T09:13:30.897Z,2.50
2018-11-11T09:14:34.295Z,1.90
2018-11-11T09:15:37.707Z,2.05
2018-11-11T09:16:41.092Z,3.35
2018-11-11T09:17:44.789Z,2.85
2018-11-11T09:18:48.664Z,3.02
2018-11-11T09:19:52.024Z,1.67
2018-11-11T09:20:55.464Z,1.95
2018-11-11T09:21:58.829Z,1.92
2018-11-11T09:23:02.226Z,1.92
2018-11-11T09:24:05.900Z,4.10
2018-11-11T09:25:09.997Z,0.60
2018-11-11T09:26:13.408Z,2.83
2018-11-11T09:27:16.780Z,3.27
2018-11-11T09:28:20.283Z,3.08
2018-11-11T09:29:23.687Z,2.67
2018-11-11T09:30:27.174Z,1.37
2018-11-11T09:31:30.491Z,2.20
2018-11-11T09:32:33.881Z,3.62
2018-11-11T09:33:37.311Z,4.97
2018-11-11T09:34:40.692Z,4.22
2018-11-11T09:35:44.076Z,2.90
2018-11-11T09:36:47.528Z,2.77
2018-11-11T09:37:50.896Z,1.50
2018-11-11T09:38:54.270Z,1.37
2018-11-11T09:39:57.652Z,1.25
2018-11-11T09:41:01.016Z,0.88
2018-11-11T09:42:04.637Z,3.10
2018-11-11T09:43:07.995Z,1.62
2018-11-11T09:44:11.401Z,3.35
2018-11-11T09:45:15.663Z,1.17
2018-11-11T09:46:19.120Z,0.82
2018-11-11T09:47:22.496Z,3.10
2018-11-11T09:48:25.880Z,1.98
2018-11-11T09:49:29.289Z,1.67
2018-11-11T09:50:32.796Z,1.77
2018-11-11T09:51:36.165Z,1.42
2018-11-11T09:52:39.876Z,1.30
2018-11-11T09:53:43.204Z,1.32
2018-11-11T09:54:46.717Z,1.07
2018-11-11T09:55:50.129Z,2.52
2018-11-11T09:56:53.496Z,1.25
2018-11-11T09:57:57.099Z,1.20
2018-11-11T09:59:00.519Z,1.17
2018-11-11T10:00:03.900Z,1.07
2018-11-11T10:01:07.490Z,2.58
2018-11-11T10:02:11.105Z,0.88
2018-11-11T10:03:19.948Z,1.95
2018-11-11T10:04:26.653Z,1.10
2018-11-11T10:05:42.053Z,1.75
2018-11-11T10:06:52.621Z,0.72
2018-11-11T10:10:04.952Z,1.20
2018-11-11T10:13:18.740Z,0.98
2018-11-11T10:16:35.760Z,1.67
2018-11-11T10:18:46.364Z,1.00
2018-11-11T10:19:55.564Z,1.22
2018-11-11T10:21:09.176Z,2.12
2018-11-11T10:24:21.018Z,1.75
2018-11-11T10:25:28.151Z,3.22
2018-11-11T10:26:35.726Z,0.93
2018-11-11T10:28:41.892Z,1.20
2018-11-11T10:29:53.836Z,2.47
2018-11-11T10:31:32.601Z,2.52
2018-11-11T10:32:51.583Z,1.37
2018-11-11T10:34:02.196Z,3.92
2018-11-11T10:35:15.999Z,1.55
2018-11-11T10:36:38.170Z,1.20
2018-11-11T10:37:44.911Z,1.47
2018-11-11T10:38:52.413Z,3.65
2018-11-11T10:40:02.596Z,2.15
2018-11-11T10:41:10.194Z,1.67
2018-11-11T10:42:20.281Z,1.87
2018-11-11T10:43:29.016Z,2.67
2018-11-11T10:44:45.301Z,2.02
2018-11-11T10:46:05.669Z,1.77
2018-11-11T10:47:15.002Z,0.90
2018-11-11T10:48:22.057Z,2.42
2018-11-11T10:49:30.469Z,2.10
2018-11-11T10:50:41.024Z,4.92
2018-11-11T10:51:44.595Z,1.92
2018-11-11T10:52:48.062Z,3.50
2018-11-11T10:53:51.430Z,2.05
2018-11-11T10:54:55.021Z,1.40
2018-11-11T10:55:58.488Z,2.35
2018-11-11T10:57:01.909Z,3.58
2018-11-11T10:58:05.512Z,1.80
2018-11-11T10:59:09.081Z,2.42
2018-11-11T11:00:17.998Z,4.10
2018-11-11T11:01:31.053Z,2.75
2018-11-11T11:02:39.740Z,3.17
2018-11-11T11:03:43.126Z,3.80
2018-11-11T11:04:52.219Z,2.15
2018-11-11T11:05:55.660Z,2.02
2018-11-11T11:07:04.532Z,2.70
2018-11-11T11:08:07.981Z,4.08
2018-11-11T11:09:13.657Z,3.40
2018-11-11T11:10:17.046Z,2.58
2018-11-11T11:11:20.441Z,7.50
2018-11-11T11:12:23.864Z,3.72
2018-11-11T11:13:28.081Z,2.83
2018-11-11T11:14:31.370Z,5.25
2018-11-11T11:15:34.747Z,4.83
2018-11-11T11:16:38.184Z,9.20
2018-11-11T11:17:41.611Z,3.92
2018-11-11T11:18:45.000Z,5.37
2018-11-11T11:19:48.361Z,5.92
2018-11-11T11:20:51.741Z,6.40
2018-11-11T11:21:55.117Z,3.15
2018-11-11T11:22:58.507Z,2.67
2018-11-11T11:24:01.945Z,4.05
2018-11-11T11:25:06.296Z,2.65
2018-11-11T11:26:09.680Z,3.35
2018-11-11T11:27:13.192Z,4.50
2018-11-11T11:28:16.494Z,2.58
2018-11-11T11:29:19.883Z,4.28
2018-11-11T11:30:23.257Z,3.47
2018-11-11T11:31:26.939Z,2.90
2018-11-11T11:32:30.285Z,2.75
2018-11-11T11:33:33.685Z,5.87
2018-11-11T11:34:37.119Z,6.72
2018-11-11T11:35:40.582Z,4.80
2018-11-11T11:36:43.946Z,4.00
2018-11-11T11:37:47.304Z,4.08
2018-11-11T11:38:51.030Z,2.37
2018-11-11T11:39:54.445Z,2.62
2018-11-11T11:40:57.836Z,3.95
2018-11-11T11:42:01.233Z,3.55
2018-11-11T11:43:04.732Z,4.62
2018-11-11T11:44:08.299Z,3.67
2018-11-11T11:45:12.377Z,1.50
2018-11-11T11:46:15.771Z,4.00
2018-11-11T11:47:19.296Z,5.35
2018-11-11T11:48:22.642Z,4.35
2018-11-11T11:49:26.044Z,2.35
2018-11-11T11:50:29.775Z,4.80
2018-11-11T11:51:33.116Z,4.53
2018-11-11T11:52:36.574Z,4.05
2018-11-11T11:53:40.004Z,4.47
2018-11-11T11:54:43.376Z,4.83
2018-11-11T11:55:46.756Z,3.42
2018-11-11T11:56:50.182Z,4.47
2018-11-11T11:58:08.025Z,2.67
2018-11-11T11:59:11.337Z,4.15
2018-11-11T12:00:14.709Z,7.15
2018-11-11T12:01:18.145Z,2.92
2018-11-11T12:02:21.610Z,3.15
2018-11-11T12:03:24.956Z,1.62
2018-11-11T12:04:28.343Z,1.40
2018-11-11T12:05:31.716Z,1.12
2018-11-11T12:06:35.162Z,4.40
2018-11-11T12:07:38.568Z,2.25
2018-11-11T12:08:41.983Z,4.12
2018-11-11T12:09:45.376Z,4.80
2018-11-11T12:10:48.855Z,4.00
2018-11-11T12:11:52.257Z,2.62
2018-11-11T12:12:55.631Z,3.22
2018-11-11T12:13:59.025Z,3.80
2018-11-11T12:15:02.396Z,5.22
2018-11-11T12:16:06.017Z,3.30
2018-11-11T12:17:09.419Z,2.77
2018-11-11T12:18:12.837Z,4.67
2018-11-11T12:19:16.216Z,2.83
2018-11-11T12:20:19.890Z,1.40
2018-11-11T12:21:23.337Z,2.47
2018-11-11T12:22:26.992Z,3.35
2018-11-11T12:23:30.413Z,2.62
2018-11-11T12:24:33.817Z,3.22
2018-11-11T12:25:38.201Z,2.22
2018-11-11T12:26:41.597Z,2.70
2018-11-11T12:27:45.005Z,1.62
2018-11-11T12:28:48.408Z,2.75
2018-11-11T12:29:51.809Z,2.83
2018-11-11T12:30:55.311Z,3.40
2018-11-11T12:31:58.600Z,2.12
2018-11-11T12:33:02.135Z,2.58
2018-11-11T12:34:06.133Z,3.67
2018-11-11T12:35:09.565Z,2.22
2018-11-11T12:36:12.944Z,3.33
2018-11-11T12:37:16.355Z,2.47
2018-11-11T12:38:19.723Z,3.30
2018-11-11T12:39:23.156Z,2.72
2018-11-11T12:40:26.532Z,3.10
2018-11-11T12:41:30.012Z,3.08
2018-11-11T12:42:33.431Z,3.40
2018-11-11T12:43:36.807Z,3.83
2018-11-11T12:44:40.271Z,3.15
2018-11-11T12:45:43.673Z,2.52
2018-11-11T12:46:47.231Z,3.62
2018-11-11T12:47:50.612Z,3.60
2018-11-11T12:48:53.997Z,2.60
2018-11-11T12:49:57.372Z,2.87
2018-11-11T12:51:00.778Z,5.87
2018-11-11T12:52:04.481Z,2.65
2018-11-11T12:53:07.844Z,3.90
2018-11-11T12:54:11.210Z,2.85
2018-11-11T12:55:14.631Z,4.10
2018-11-11T12:56:17.961Z,2.05
2018-11-11T12:57:21.397Z,3.47
2018-11-11T12:58:24.772Z,1.95
2018-11-11T12:59:28.176Z,3.27
2018-11-11T13:00:31.548Z,2.47
2018-11-11T13:01:34.942Z,2.37
2018-11-11T13:02:38.354Z,1.50
2018-11-11T13:03:41.852Z,2.75
2018-11-11T13:04:45.685Z,4.72
2018-11-11T13:05:49.555Z,3.95
2018-11-11T13:06:52.969Z,2.02
2018-11-11T13:07:56.382Z,2.80
2018-11-11T13:08:59.726Z,1.85
2018-11-11T13:10:04.160Z,2.37
2018-11-11T13:11:07.528Z,4.42
2018-11-11T13:12:11.087Z,6.30
2018-11-11T13:13:14.317Z,2.25
2018-11-11T13:14:17.708Z,2.85
2018-11-11T13:15:21.100Z,2.30
2018-11-11T13:16:24.513Z,3.65
2018-11-11T13:17:27.940Z,5.15
2018-11-11T13:18:31.559Z,6.17
2018-11-11T13:19:35.012Z,7.45
2018-11-11T13:20:38.337Z,5.25
2018-11-11T13:21:41.733Z,10.63
2018-11-11T13:22:45.222Z,6.85
2018-11-11T13:23:48.564Z,3.95
2018-11-11T13:24:52.101Z,4.37
2018-11-11T13:25:55.478Z,3.25
2018-11-11T13:26:58.857Z,3.10
2018-11-11T13:28:02.233Z,3.35
2018-11-11T13:29:05.624Z,5.40
2018-11-11T13:30:11.435Z,2.95
2018-11-11T13:31:14.832Z,4.45
2018-11-11T13:32:18.995Z,1.57
2018-11-11T13:33:22.499Z,2.37
2018-11-11T13:34:25.887Z,4.85
2018-11-11T13:35:29.274Z,2.85
2018-11-11T13:36:32.636Z,3.45
2018-11-11T13:37:36.119Z,3.37
2018-11-11T13:38:39.563Z,1.72
2018-11-11T13:39:42.884Z,4.58
2018-11-11T13:40:46.289Z,2.00
2018-11-11T13:41:49.659Z,3.12
2018-11-11T13:42:53.074Z,3.10
2018-11-11T13:43:56.496Z,4.12
2018-11-11T13:44:59.859Z,6.58
2018-11-11T13:46:03.254Z,4.12
2018-11-11T13:47:06.617Z,6.40
2018-11-11T13:48:10.086Z,5.42
2018-11-11T13:49:13.553Z,6.75
2018-11-11T13:50:18.237Z,5.25
2018-11-11T13:51:21.579Z,4.87
2018-11-11T13:52:25.055Z,4.90
2018-11-11T13:53:28.389Z,5.33
2018-11-11T13:54:31.759Z,5.00
2018-11-11T13:55:35.141Z,5.42
2018-11-11T13:56:39.422Z,9.75
2018-11-11T13:57:43.648Z,4.70
2018-11-11T13:58:47.049Z,5.95
2018-11-11T13:59:50.420Z,5.90
2018-11-11T14:00:53.801Z,3.72
2018-11-11T14:01:57.366Z,6.50
2018-11-11T14:03:00.785Z,10.72
2018-11-11T14:04:04.381Z,10.10
2018-11-11T14:05:08.247Z,17.95
2018-11-11T14:06:11.607Z,17.67
2018-11-11T14:07:14.999Z,16.07
2018-11-11T14:08:18.457Z,12.28
2018-11-11T14:09:21.852Z,10.30
2018-11-11T14:10:25.266Z,11.05
2018-11-11T14:11:28.652Z,6.50
2018-11-11T14:12:33.076Z,6.55
2018-11-11T14:13:36.441Z,6.53
2018-11-11T14:14:40.613Z,5.75
2018-11-11T14:15:44.020Z,6.85
2018-11-11T14:16:47.447Z,5.65
2018-11-11T14:17:51.226Z,4.70
2018-11-11T14:18:54.762Z,5.97
2018-11-11T14:19:57.991Z,2.62
2018-11-11T14:21:01.364Z,4.45
2018-11-11T14:22:04.840Z,5.97